sensor_id;sensor_type;location;lat;lon;timestamp;P1;durP1;ratioP1;P2;durP2;ratioP2
29378;SDS011;16362;47.202;15.258;2022-07-04T00:00:03;3.83;;;3.58;;
29378;SDS011;16362;47.202;15.258;2022-07-04T00:02:32;3.92;;;3.72;;
29378;SDS011;16362;47.202;15.258;2022-07-04T00:04:59;5.75;;;3.70;;
29378;SDS011;16362;47.202;15.258;2022-07-04T00:07:26;3.67;;;3.30;;
29378;SDS011;16362;47.202;15.258;2022-07-04T00:09:53;4.75;;;4.05;;
29378;SDS011;16362;47.202;15.258;2022-07-04T00:12:20;3.45;;;3.35;;
29378;SDS011;16362;47.202;15.258;2022-07-04T00:14:47;3.70;;;3.60;;
29378;SDS011;16362;47.202;15.258;2022-07-04T00:17:14;4.93;;;3.85;;
29378;SDS011;16362;47.202;15.258;2022-07-04T00:19:41;4.15;;;3.78;;
29378;SDS011;16362;47.202;15.258;2022-07-04T00:22:07;3.90;;;3.70;;
29378;SDS011;16362;47.202;15.258;2022-07-04T00:24:34;3.65;;;3.55;;
29378;SDS011;16362;47.202;15.258;2022-07-04T00:27:01;7.25;;;3.67;;
29378;SDS011;16362;47.202;15.258;2022-07-04T00:29:27;4.00;;;3.60;;
29378;SDS011;16362;47.202;15.258;2022-07-04T00:31:55;3.78;;;3.50;;
29378;SDS011;16362;47.202;15.258;2022-07-04T00:34:22;3.78;;;3.50;;
29378;SDS011;16362;47.202;15.258;2022-07-04T00:36:49;4.10;;;3.90;;
29378;SDS011;16362;47.202;15.258;2022-07-04T00:39:15;6.30;;;3.80;;
29378;SDS011;16362;47.202;15.258;2022-07-04T00:41:43;4.15;;;3.75;;
29378;SDS011;16362;47.202;15.258;2022-07-04T00:44:10;6.38;;;3.17;;
29378;SDS011;16362;47.202;15.258;2022-07-04T00:46:39;3.75;;;3.55;;
29378;SDS011;16362;47.202;15.258;2022-07-04T00:49:07;4.05;;;3.85;;
29378;SDS011;16362;47.202;15.258;2022-07-04T00:51:35;3.83;;;3.63;;
29378;SDS011;16362;47.202;15.258;2022-07-04T00:54:03;3.55;;;3.45;;
29378;SDS011;16362;47.202;15.258;2022-07-04T00:56:31;4.18;;;3.85;;
29378;SDS011;16362;47.202;15.258;2022-07-04T00:59:01;3.72;;;3.42;;
29378;SDS011;16362;47.202;15.258;2022-07-04T01:01:29;5.15;;;3.90;;
29378;SDS011;16362;47.202;15.258;2022-07-04T01:03:55;3.65;;;3.45;;
29378;SDS011;16362;47.202;15.258;2022-07-04T01:06:23;11.25;;;4.05;;
29378;SDS011;16362;47.202;15.258;2022-07-04T01:08:49;4.22;;;3.58;;
29378;SDS011;16362;47.202;15.258;2022-07-04T01:11:16;4.68;;;3.60;;
29378;SDS011;16362;47.202;15.258;2022-07-04T01:13:44;4.13;;;3.78;;
29378;SDS011;16362;47.202;15.258;2022-07-04T01:16:11;4.30;;;3.90;;
29378;SDS011;16362;47.202;15.258;2022-07-04T01:18:38;4.05;;;3.53;;
29378;SDS011;16362;47.202;15.258;2022-07-04T01:21:06;3.53;;;3.25;;
29378;SDS011;16362;47.202;15.258;2022-07-04T01:23:40;6.00;;;3.75;;
29378;SDS011;16362;47.202;15.258;2022-07-04T01:26:07;7.47;;;3.53;;
29378;SDS011;16362;47.202;15.258;2022-07-04T01:28:34;3.83;;;3.63;;
29378;SDS011;16362;47.202;15.258;2022-07-04T01:31:01;3.85;;;3.60;;
29378;SDS011;16362;47.202;15.258;2022-07-04T01:33:28;5.32;;;4.03;;
29378;SDS011;16362;47.202;15.258;2022-07-04T01:35:55;6.20;;;3.97;;
29378;SDS011;16362;47.202;15.258;2022-07-04T01:38:21;3.65;;;3.45;;
29378;SDS011;16362;47.202;15.258;2022-07-04T01:40:48;4.50;;;4.10;;
29378;SDS011;16362;47.202;15.258;2022-07-04T01:43:15;3.78;;;3.63;;
29378;SDS011;16362;47.202;15.258;2022-07-04T01:45:42;3.83;;;3.63;;
29378;SDS011;16362;47.202;15.258;2022-07-04T01:48:10;4.55;;;3.33;;
29378;SDS011;16362;47.202;15.258;2022-07-04T01:50:37;11.90;;;4.93;;
29378;SDS011;16362;47.202;15.258;2022-07-04T01:53:04;4.45;;;3.65;;
29378;SDS011;16362;47.202;15.258;2022-07-04T01:55:31;4.13;;;3.72;;
29378;SDS011;16362;47.202;15.258;2022-07-04T01:57:58;6.43;;;3.83;;
29378;SDS011;16362;47.202;15.258;2022-07-04T02:00:26;4.35;;;4.10;;
29378;SDS011;16362;47.202;15.258;2022-07-04T02:03:12;4.05;;;3.75;;
29378;SDS011;16362;47.202;15.258;2022-07-04T02:05:39;4.13;;;3.95;;
29378;SDS011;16362;47.202;15.258;2022-07-04T02:08:06;4.78;;;3.78;;
29378;SDS011;16362;47.202;15.258;2022-07-04T02:10:34;3.70;;;3.50;;
29378;SDS011;16362;47.202;15.258;2022-07-04T02:13:02;4.07;;;3.88;;
29378;SDS011;16362;47.202;15.258;2022-07-04T02:15:33;6.00;;;3.42;;
29378;SDS011;16362;47.202;15.258;2022-07-04T02:18:05;3.53;;;3.33;;
29378;SDS011;16362;47.202;15.258;2022-07-04T02:20:33;4.03;;;3.90;;
29378;SDS011;16362;47.202;15.258;2022-07-04T02:23:01;4.07;;;3.72;;
29378;SDS011;16362;47.202;15.258;2022-07-04T02:25:29;4.57;;;4.35;;
29378;SDS011;16362;47.202;15.258;2022-07-04T02:27:56;5.40;;;3.80;;
29378;SDS011;16362;47.202;15.258;2022-07-04T02:30:23;4.32;;;3.92;;
29378;SDS011;16362;47.202;15.258;2022-07-04T02:32:50;8.30;;;3.75;;
29378;SDS011;16362;47.202;15.258;2022-07-04T02:35:17;5.13;;;4.00;;
29378;SDS011;16362;47.202;15.258;2022-07-04T02:37:44;4.38;;;4.18;;
29378;SDS011;16362;47.202;15.258;2022-07-04T02:40:11;3.58;;;3.47;;
29378;SDS011;16362;47.202;15.258;2022-07-04T02:42:38;7.18;;;3.80;;
29378;SDS011;16362;47.202;15.258;2022-07-04T02:45:05;4.03;;;3.58;;
29378;SDS011;16362;47.202;15.258;2022-07-04T02:47:32;5.15;;;3.72;;
29378;SDS011;16362;47.202;15.258;2022-07-04T02:49:59;4.35;;;4.05;;
29378;SDS011;16362;47.202;15.258;2022-07-04T02:52:28;3.95;;;3.60;;
29378;SDS011;16362;47.202;15.258;2022-07-04T02:54:56;4.60;;;4.40;;
29378;SDS011;16362;47.202;15.258;2022-07-04T02:57:23;3.90;;;3.80;;
29378;SDS011;16362;47.202;15.258;2022-07-04T02:59:50;5.63;;;3.95;;
29378;SDS011;16362;47.202;15.258;2022-07-04T03:02:17;3.92;;;3.72;;
29378;SDS011;16362;47.202;15.258;2022-07-04T03:04:44;3.78;;;3.58;;
29378;SDS011;16362;47.202;15.258;2022-07-04T03:07:11;4.63;;;3.70;;
29378;SDS011;16362;47.202;15.258;2022-07-04T03:09:38;4.68;;;3.90;;
29378;SDS011;16362;47.202;15.258;2022-07-04T03:12:04;4.10;;;3.40;;
29378;SDS011;16362;47.202;15.258;2022-07-04T03:14:32;3.67;;;3.47;;
29378;SDS011;16362;47.202;15.258;2022-07-04T03:16:58;5.43;;;3.47;;
29378;SDS011;16362;47.202;15.258;2022-07-04T03:19:25;4.30;;;4.10;;
29378;SDS011;16362;47.202;15.258;2022-07-04T03:21:52;3.67;;;3.40;;
29378;SDS011;16362;47.202;15.258;2022-07-04T03:24:19;3.85;;;3.35;;
29378;SDS011;16362;47.202;15.258;2022-07-04T03:26:46;4.18;;;3.70;;
29378;SDS011;16362;47.202;15.258;2022-07-04T03:29:12;3.90;;;3.70;;
29378;SDS011;16362;47.202;15.258;2022-07-04T03:31:39;3.80;;;3.70;;
29378;SDS011;16362;47.202;15.258;2022-07-04T03:34:06;7.43;;;3.50;;
29378;SDS011;16362;47.202;15.258;2022-07-04T03:36:33;4.35;;;3.95;;
29378;SDS011;16362;47.202;15.258;2022-07-04T03:38:59;3.60;;;3.40;;
29378;SDS011;16362;47.202;15.258;2022-07-04T03:41:26;4.93;;;3.58;;
29378;SDS011;16362;47.202;15.258;2022-07-04T03:43:53;4.15;;;3.70;;
29378;SDS011;16362;47.202;15.258;2022-07-04T03:46:20;4.07;;;3.78;;
29378;SDS011;16362;47.202;15.258;2022-07-04T03:48:47;4.00;;;3.80;;
29378;SDS011;16362;47.202;15.258;2022-07-04T03:51:13;5.97;;;4.00;;
29378;SDS011;16362;47.202;15.258;2022-07-04T03:53:41;3.53;;;3.38;;
29378;SDS011;16362;47.202;15.258;2022-07-04T03:56:08;4.20;;;3.88;;
29378;SDS011;16362;47.202;15.258;2022-07-04T03:58:35;3.58;;;3.47;;
29378;SDS011;16362;47.202;15.258;2022-07-04T04:01:02;3.45;;;3.35;;
29378;SDS011;16362;47.202;15.258;2022-07-04T04:03:29;5.03;;;3.70;;
29378;SDS011;16362;47.202;15.258;2022-07-04T04:08:41;5.28;;;3.30;;
29378;SDS011;16362;47.202;15.258;2022-07-04T04:11:08;5.55;;;3.65;;
29378;SDS011;16362;47.202;15.258;2022-07-04T04:13:34;4.93;;;3.90;;
29378;SDS011;16362;47.202;15.258;2022-07-04T04:16:01;5.25;;;3.97;;
29378;SDS011;16362;47.202;15.258;2022-07-04T04:18:28;3.97;;;3.80;;
29378;SDS011;16362;47.202;15.258;2022-07-04T04:20:55;4.47;;;4.18;;
29378;SDS011;16362;47.202;15.258;2022-07-04T04:23:22;3.97;;;3.78;;
29378;SDS011;16362;47.202;15.258;2022-07-04T04:25:48;3.63;;;3.42;;
29378;SDS011;16362;47.202;15.258;2022-07-04T04:28:21;5.85;;;3.90;;
29378;SDS011;16362;47.202;15.258;2022-07-04T04:30:48;4.35;;;4.05;;
29378;SDS011;16362;47.202;15.258;2022-07-04T04:33:16;4.90;;;3.67;;
29378;SDS011;16362;47.202;15.258;2022-07-04T04:35:42;5.03;;;3.30;;
29378;SDS011;16362;47.202;15.258;2022-07-04T04:38:09;4.18;;;3.97;;
29378;SDS011;16362;47.202;15.258;2022-07-04T04:40:36;4.32;;;3.92;;
29378;SDS011;16362;47.202;15.258;2022-07-04T04:43:03;3.83;;;3.63;;
29378;SDS011;16362;47.202;15.258;2022-07-04T04:45:29;3.67;;;3.42;;
29378;SDS011;16362;47.202;15.258;2022-07-04T04:47:56;3.75;;;3.30;;
29378;SDS011;16362;47.202;15.258;2022-07-04T04:50:23;8.45;;;3.80;;
29378;SDS011;16362;47.202;15.258;2022-07-04T04:52:50;3.47;;;3.28;;
29378;SDS011;16362;47.202;15.258;2022-07-04T04:55:16;4.15;;;3.78;;
29378;SDS011;16362;47.202;15.258;2022-07-04T04:57:43;4.07;;;3.65;;
29378;SDS011;16362;47.202;15.258;2022-07-04T05:00:10;4.00;;;3.70;;
29378;SDS011;16362;47.202;15.258;2022-07-04T05:02:37;4.10;;;3.80;;
29378;SDS011;16362;47.202;15.258;2022-07-04T05:05:04;5.97;;;3.38;;
29378;SDS011;16362;47.202;15.258;2022-07-04T05:07:32;3.97;;;3.63;;
29378;SDS011;16362;47.202;15.258;2022-07-04T05:10:00;4.38;;;4.20;;
29378;SDS011;16362;47.202;15.258;2022-07-04T05:12:27;4.15;;;3.80;;
29378;SDS011;16362;47.202;15.258;2022-07-04T05:14:54;3.88;;;3.40;;
29378;SDS011;16362;47.202;15.258;2022-07-04T05:17:21;4.15;;;3.60;;
29378;SDS011;16362;47.202;15.258;2022-07-04T05:19:49;4.00;;;3.80;;
29378;SDS011;16362;47.202;15.258;2022-07-04T05:22:16;3.50;;;3.40;;
29378;SDS011;16362;47.202;15.258;2022-07-04T05:24:42;4.45;;;3.53;;
29378;SDS011;16362;47.202;15.258;2022-07-04T05:27:10;3.60;;;3.50;;
29378;SDS011;16362;47.202;15.258;2022-07-04T05:29:37;3.88;;;3.58;;
29378;SDS011;16362;47.202;15.258;2022-07-04T05:32:04;4.07;;;3.92;;
29378;SDS011;16362;47.202;15.258;2022-07-04T05:34:32;3.90;;;3.80;;
29378;SDS011;16362;47.202;15.258;2022-07-04T05:36:59;3.60;;;3.45;;
29378;SDS011;16362;47.202;15.258;2022-07-04T05:39:25;3.75;;;3.55;;
29378;SDS011;16362;47.202;15.258;2022-07-04T05:41:52;4.75;;;3.30;;
29378;SDS011;16362;47.202;15.258;2022-07-04T05:44:19;3.67;;;3.47;;
29378;SDS011;16362;47.202;15.258;2022-07-04T05:46:45;3.38;;;3.17;;
29378;SDS011;16362;47.202;15.258;2022-07-04T05:49:12;3.30;;;3.20;;
29378;SDS011;16362;47.202;15.258;2022-07-04T05:51:39;3.28;;;3.10;;
29378;SDS011;16362;47.202;15.258;2022-07-04T05:54:06;3.65;;;3.28;;
29378;SDS011;16362;47.202;15.258;2022-07-04T05:56:32;3.03;;;2.92;;
29378;SDS011;16362;47.202;15.258;2022-07-04T05:58:59;5.18;;;3.20;;
29378;SDS011;16362;47.202;15.258;2022-07-04T06:01:26;3.70;;;3.40;;
29378;SDS011;16362;47.202;15.258;2022-07-04T06:03:53;3.03;;;2.92;;
29378;SDS011;16362;47.202;15.258;2022-07-04T06:06:20;3.90;;;3.53;;
29378;SDS011;16362;47.202;15.258;2022-07-04T06:08:46;3.50;;;3.20;;
29378;SDS011;16362;47.202;15.258;2022-07-04T06:11:13;3.55;;;3.38;;
29378;SDS011;16362;47.202;15.258;2022-07-04T06:13:41;7.00;;;3.30;;
29378;SDS011;16362;47.202;15.258;2022-07-04T06:16:07;3.47;;;3.33;;
29378;SDS011;16362;47.202;15.258;2022-07-04T06:18:34;4.15;;;3.95;;
29378;SDS011;16362;47.202;15.258;2022-07-04T06:21:01;3.97;;;3.67;;
29378;SDS011;16362;47.202;15.258;2022-07-04T06:23:28;3.97;;;3.65;;
29378;SDS011;16362;47.202;15.258;2022-07-04T06:25:55;4.25;;;3.67;;
29378;SDS011;16362;47.202;15.258;2022-07-04T06:28:22;3.60;;;3.50;;
29378;SDS011;16362;47.202;15.258;2022-07-04T06:31:10;3.70;;;3.38;;
29378;SDS011;16362;47.202;15.258;2022-07-04T06:33:37;7.30;;;3.40;;
29378;SDS011;16362;47.202;15.258;2022-07-04T06:36:23;3.72;;;3.53;;
29378;SDS011;16362;47.202;15.258;2022-07-04T06:38:50;3.15;;;3.05;;
29378;SDS011;16362;47.202;15.258;2022-07-04T06:41:16;4.18;;;3.10;;
29378;SDS011;16362;47.202;15.258;2022-07-04T06:43:43;4.30;;;4.05;;
29378;SDS011;16362;47.202;15.258;2022-07-04T06:46:10;5.10;;;3.90;;
29378;SDS011;16362;47.202;15.258;2022-07-04T06:48:37;4.70;;;4.32;;
29378;SDS011;16362;47.202;15.258;2022-07-04T06:51:04;4.75;;;3.65;;
29378;SDS011;16362;47.202;15.258;2022-07-04T06:53:31;4.10;;;3.90;;
29378;SDS011;16362;47.202;15.258;2022-07-04T06:55:57;4.40;;;4.20;;
29378;SDS011;16362;47.202;15.258;2022-07-04T06:58:24;3.80;;;3.65;;
29378;SDS011;16362;47.202;15.258;2022-07-04T07:00:51;4.85;;;3.70;;
29378;SDS011;16362;47.202;15.258;2022-07-04T07:03:18;3.58;;;3.47;;
29378;SDS011;16362;47.202;15.258;2022-07-04T07:05:45;3.80;;;3.50;;
29378;SDS011;16362;47.202;15.258;2022-07-04T07:08:25;3.47;;;3.38;;
29378;SDS011;16362;47.202;15.258;2022-07-04T07:10:53;3.63;;;3.42;;
29378;SDS011;16362;47.202;15.258;2022-07-04T07:13:20;3.38;;;3.17;;
29378;SDS011;16362;47.202;15.258;2022-07-04T07:15:47;3.65;;;3.53;;
29378;SDS011;16362;47.202;15.258;2022-07-04T07:18:14;3.05;;;2.95;;
29378;SDS011;16362;47.202;15.258;2022-07-04T07:20:41;3.75;;;3.38;;
29378;SDS011;16362;47.202;15.258;2022-07-04T07:23:08;3.90;;;3.70;;
29378;SDS011;16362;47.202;15.258;2022-07-04T07:25:35;3.70;;;3.47;;
29378;SDS011;16362;47.202;15.258;2022-07-04T07:28:02;5.47;;;3.72;;
29378;SDS011;16362;47.202;15.258;2022-07-04T07:30:29;3.20;;;3.10;;
29378;SDS011;16362;47.202;15.258;2022-07-04T07:32:55;3.80;;;3.50;;
29378;SDS011;16362;47.202;15.258;2022-07-04T07:35:22;3.80;;;3.60;;
29378;SDS011;16362;47.202;15.258;2022-07-04T07:37:49;3.30;;;3.20;;
29378;SDS011;16362;47.202;15.258;2022-07-04T07:40:16;4.47;;;3.75;;
29378;SDS011;16362;47.202;15.258;2022-07-04T07:42:42;3.15;;;2.95;;
29378;SDS011;16362;47.202;15.258;2022-07-04T07:45:09;4.28;;;3.17;;
29378;SDS011;16362;47.202;15.258;2022-07-04T07:47:36;2.90;;;2.80;;
29378;SDS011;16362;47.202;15.258;2022-07-04T07:50:03;3.28;;;3.08;;
29378;SDS011;16362;47.202;15.258;2022-07-04T07:52:31;3.30;;;3.20;;
29378;SDS011;16362;47.202;15.258;2022-07-04T07:54:58;2.90;;;2.80;;
29378;SDS011;16362;47.202;15.258;2022-07-04T07:57:27;3.63;;;2.88;;
29378;SDS011;16362;47.202;15.258;2022-07-04T07:59:54;3.75;;;3.55;;
29378;SDS011;16362;47.202;15.258;2022-07-04T08:02:21;4.32;;;3.50;;
29378;SDS011;16362;47.202;15.258;2022-07-04T08:05:09;7.53;;;3.55;;
29378;SDS011;16362;47.202;15.258;2022-07-04T08:07:37;4.18;;;3.85;;
29378;SDS011;16362;47.202;15.258;2022-07-04T08:10:05;4.65;;;3.70;;
29378;SDS011;16362;47.202;15.258;2022-07-04T08:12:34;6.07;;;4.07;;
29378;SDS011;16362;47.202;15.258;2022-07-04T08:15:01;4.57;;;3.88;;
29378;SDS011;16362;47.202;15.258;2022-07-04T08:17:32;3.75;;;3.50;;
29378;SDS011;16362;47.202;15.258;2022-07-04T08:20:00;4.00;;;3.70;;
29378;SDS011;16362;47.202;15.258;2022-07-04T08:22:27;3.80;;;3.50;;
29378;SDS011;16362;47.202;15.258;2022-07-04T08:24:54;3.83;;;3.05;;
29378;SDS011;16362;47.202;15.258;2022-07-04T08:27:21;4.57;;;3.67;;
29378;SDS011;16362;47.202;15.258;2022-07-04T08:29:58;3.45;;;3.15;;
29378;SDS011;16362;47.202;15.258;2022-07-04T08:32:25;4.05;;;3.47;;
29378;SDS011;16362;47.202;15.258;2022-07-04T08:34:52;3.10;;;3.00;;
29378;SDS011;16362;47.202;15.258;2022-07-04T08:37:21;3.08;;;2.97;;
29378;SDS011;16362;47.202;15.258;2022-07-04T08:39:49;3.15;;;2.90;;
29378;SDS011;16362;47.202;15.258;2022-07-04T08:42:16;3.70;;;3.50;;
29378;SDS011;16362;47.202;15.258;2022-07-04T08:44:49;3.30;;;3.03;;
29378;SDS011;16362;47.202;15.258;2022-07-04T08:47:19;3.50;;;3.40;;
29378;SDS011;16362;47.202;15.258;2022-07-04T08:52:30;3.78;;;3.08;;
29378;SDS011;16362;47.202;15.258;2022-07-04T08:55:04;4.07;;;3.47;;
29378;SDS011;16362;47.202;15.258;2022-07-04T08:57:51;2.75;;;2.55;;
29378;SDS011;16362;47.202;15.258;2022-07-04T09:00:37;4.70;;;2.72;;
29378;SDS011;16362;47.202;15.258;2022-07-04T09:03:04;2.80;;;2.60;;
29378;SDS011;16362;47.202;15.258;2022-07-04T09:05:32;4.82;;;2.33;;
29378;SDS011;16362;47.202;15.258;2022-07-04T09:08:00;4.03;;;2.65;;
29378;SDS011;16362;47.202;15.258;2022-07-04T09:10:27;2.40;;;2.30;;
29378;SDS011;16362;47.202;15.258;2022-07-04T09:12:55;6.10;;;2.75;;
29378;SDS011;16362;47.202;15.258;2022-07-04T09:15:37;3.25;;;2.63;;
29378;SDS011;16362;47.202;15.258;2022-07-04T09:18:05;2.40;;;2.40;;
29378;SDS011;16362;47.202;15.258;2022-07-04T09:20:32;2.72;;;2.63;;
29378;SDS011;16362;47.202;15.258;2022-07-04T09:23:00;2.83;;;2.72;;
29378;SDS011;16362;47.202;15.258;2022-07-04T09:25:27;2.72;;;2.63;;
29378;SDS011;16362;47.202;15.258;2022-07-04T09:27:54;2.58;;;2.42;;
29378;SDS011;16362;47.202;15.258;2022-07-04T09:30:26;2.67;;;2.58;;
29378;SDS011;16362;47.202;15.258;2022-07-04T09:32:54;3.53;;;2.70;;
29378;SDS011;16362;47.202;15.258;2022-07-04T09:35:31;2.80;;;2.70;;
29378;SDS011;16362;47.202;15.258;2022-07-04T09:37:59;2.70;;;2.50;;
29378;SDS011;16362;47.202;15.258;2022-07-04T09:40:33;2.67;;;2.55;;
29378;SDS011;16362;47.202;15.258;2022-07-04T09:43:24;2.70;;;2.58;;
29378;SDS011;16362;47.202;15.258;2022-07-04T09:45:56;2.75;;;2.50;;
29378;SDS011;16362;47.202;15.258;2022-07-04T09:48:25;2.80;;;2.70;;
29378;SDS011;16362;47.202;15.258;2022-07-04T09:50:52;2.95;;;2.85;;
29378;SDS011;16362;47.202;15.258;2022-07-04T09:53:25;2.78;;;2.50;;
29378;SDS011;16362;47.202;15.258;2022-07-04T09:55:53;3.00;;;2.90;;
29378;SDS011;16362;47.202;15.258;2022-07-04T09:58:20;3.05;;;2.83;;
29378;SDS011;16362;47.202;15.258;2022-07-04T10:00:47;2.80;;;2.70;;
29378;SDS011;16362;47.202;15.258;2022-07-04T10:03:21;5.05;;;2.60;;
29378;SDS011;16362;47.202;15.258;2022-07-04T10:06:04;4.32;;;2.70;;
29378;SDS011;16362;47.202;15.258;2022-07-04T10:08:39;9.50;;;2.83;;
29378;SDS011;16362;47.202;15.258;2022-07-04T10:11:07;5.65;;;3.22;;
29378;SDS011;16362;47.202;15.258;2022-07-04T10:13:38;3.60;;;3.30;;
29378;SDS011;16362;47.202;15.258;2022-07-04T10:16:05;3.05;;;2.90;;
29378;SDS011;16362;47.202;15.258;2022-07-04T10:18:34;3.20;;;3.00;;
29378;SDS011;16362;47.202;15.258;2022-07-04T10:21:01;3.45;;;3.15;;
29378;SDS011;16362;47.202;15.258;2022-07-04T10:23:28;2.90;;;2.80;;
29378;SDS011;16362;47.202;15.258;2022-07-04T10:25:58;3.00;;;2.90;;
29378;SDS011;16362;47.202;15.258;2022-07-04T10:28:25;5.03;;;3.47;;
29378;SDS011;16362;47.202;15.258;2022-07-04T10:30:53;3.67;;;3.30;;
29378;SDS011;16362;47.202;15.258;2022-07-04T10:33:23;4.13;;;3.08;;
29378;SDS011;16362;47.202;15.258;2022-07-04T10:35:59;3.00;;;2.90;;
29378;SDS011;16362;47.202;15.258;2022-07-04T10:38:32;2.90;;;2.80;;
29378;SDS011;16362;47.202;15.258;2022-07-04T10:41:05;3.22;;;3.03;;
29378;SDS011;16362;47.202;15.258;2022-07-04T10:48:55;3.15;;;2.95;;
29378;SDS011;16362;47.202;15.258;2022-07-04T10:54:00;2.50;;;2.40;;
29378;SDS011;16362;47.202;15.258;2022-07-04T10:58:56;3.28;;;3.08;;
29378;SDS011;16362;47.202;15.258;2022-07-04T11:01:24;4.15;;;2.30;;
29378;SDS011;16362;47.202;15.258;2022-07-04T11:03:51;3.97;;;2.30;;
29378;SDS011;16362;47.202;15.258;2022-07-04T11:09:17;3.22;;;3.08;;
29378;SDS011;16362;47.202;15.258;2022-07-04T11:11:55;2.63;;;2.35;;
29378;SDS011;16362;47.202;15.258;2022-07-04T11:20:00;2.58;;;2.38;;
29378;SDS011;16362;47.202;15.258;2022-07-04T11:22:27;2.58;;;2.47;;
29378;SDS011;16362;47.202;15.258;2022-07-04T11:24:54;2.22;;;2.03;;
29378;SDS011;16362;47.202;15.258;2022-07-04T11:27:21;2.33;;;2.22;;
29378;SDS011;16362;47.202;15.258;2022-07-04T11:29:49;2.42;;;2.33;;
29378;SDS011;16362;47.202;15.258;2022-07-04T11:32:20;2.33;;;2.13;;
29378;SDS011;16362;47.202;15.258;2022-07-04T11:34:55;3.30;;;2.20;;
29378;SDS011;16362;47.202;15.258;2022-07-04T11:37:22;2.58;;;2.40;;
29378;SDS011;16362;47.202;15.258;2022-07-04T11:39:50;2.50;;;2.38;;
29378;SDS011;16362;47.202;15.258;2022-07-04T11:42:18;2.70;;;2.47;;
29378;SDS011;16362;47.202;15.258;2022-07-04T11:45:04;2.30;;;2.20;;
29378;SDS011;16362;47.202;15.258;2022-07-04T11:47:40;2.40;;;2.33;;
29378;SDS011;16362;47.202;15.258;2022-07-04T11:50:09;2.47;;;2.38;;
29378;SDS011;16362;47.202;15.258;2022-07-04T11:52:41;2.67;;;2.50;;
29378;SDS011;16362;47.202;15.258;2022-07-04T11:55:30;2.47;;;2.28;;
29378;SDS011;16362;47.202;15.258;2022-07-04T11:57:57;2.33;;;2.22;;
29378;SDS011;16362;47.202;15.258;2022-07-04T12:00:25;2.55;;;2.45;;
29378;SDS011;16362;47.202;15.258;2022-07-04T12:02:57;4.28;;;2.17;;
29378;SDS011;16362;47.202;15.258;2022-07-04T12:05:25;2.53;;;2.42;;
29378;SDS011;16362;47.202;15.258;2022-07-04T12:07:52;4.22;;;2.13;;
29378;SDS011;16362;47.202;15.258;2022-07-04T12:10:39;5.68;;;2.53;;
29378;SDS011;16362;47.202;15.258;2022-07-04T12:13:14;2.50;;;2.40;;
29378;SDS011;16362;47.202;15.258;2022-07-04T12:15:44;2.42;;;2.30;;
29378;SDS011;16362;47.202;15.258;2022-07-04T12:18:25;2.50;;;2.40;;
29378;SDS011;16362;47.202;15.258;2022-07-04T12:21:12;2.83;;;2.72;;
29378;SDS011;16362;47.202;15.258;2022-07-04T12:23:51;2.53;;;2.42;;
29378;SDS011;16362;47.202;15.258;2022-07-04T12:26:43;2.45;;;2.35;;
29378;SDS011;16362;47.202;15.258;2022-07-04T12:29:19;2.70;;;2.60;;
29378;SDS011;16362;47.202;15.258;2022-07-04T12:31:57;2.50;;;2.40;;
29378;SDS011;16362;47.202;15.258;2022-07-04T12:34:25;2.67;;;2.58;;
29378;SDS011;16362;47.202;15.258;2022-07-04T12:36:52;4.55;;;2.65;;
29378;SDS011;16362;47.202;15.258;2022-07-04T12:39:30;2.88;;;2.67;;
29378;SDS011;16362;47.202;15.258;2022-07-04T12:42:08;2.80;;;2.70;;
29378;SDS011;16362;47.202;15.258;2022-07-04T12:44:37;6.40;;;3.25;;
29378;SDS011;16362;47.202;15.258;2022-07-04T12:47:05;2.90;;;2.80;;
29378;SDS011;16362;47.202;15.258;2022-07-04T12:49:53;3.20;;;3.00;;
29378;SDS011;16362;47.202;15.258;2022-07-04T12:52:20;3.13;;;3.03;;
29378;SDS011;16362;47.202;15.258;2022-07-04T12:55:03;4.22;;;3.47;;
29378;SDS011;16362;47.202;15.258;2022-07-04T12:57:33;3.03;;;2.92;;
29378;SDS011;16362;47.202;15.258;2022-07-04T13:00:00;7.13;;;3.00;;
29378;SDS011;16362;47.202;15.258;2022-07-04T13:02:47;2.95;;;2.85;;
29378;SDS011;16362;47.202;15.258;2022-07-04T13:05:14;3.58;;;3.30;;
29378;SDS011;16362;47.202;15.258;2022-07-04T13:07:42;3.05;;;2.95;;
29378;SDS011;16362;47.202;15.258;2022-07-04T13:10:09;3.28;;;3.17;;
29378;SDS011;16362;47.202;15.258;2022-07-04T13:12:36;3.60;;;3.40;;
29378;SDS011;16362;47.202;15.258;2022-07-04T13:15:04;3.30;;;3.20;;
29378;SDS011;16362;47.202;15.258;2022-07-04T13:17:32;7.75;;;3.58;;
29378;SDS011;16362;47.202;15.258;2022-07-04T13:19:58;4.15;;;3.85;;
29378;SDS011;16362;47.202;15.258;2022-07-04T13:22:25;3.70;;;3.50;;
29378;SDS011;16362;47.202;15.258;2022-07-04T13:24:52;3.88;;;3.55;;
29378;SDS011;16362;47.202;15.258;2022-07-04T13:27:19;2.92;;;2.70;;
29378;SDS011;16362;47.202;15.258;2022-07-04T13:29:45;3.20;;;3.10;;
29378;SDS011;16362;47.202;15.258;2022-07-04T13:32:12;3.50;;;3.40;;
29378;SDS011;16362;47.202;15.258;2022-07-04T13:34:39;4.22;;;3.30;;
29378;SDS011;16362;47.202;15.258;2022-07-04T13:37:06;9.00;;;4.00;;
29378;SDS011;16362;47.202;15.258;2022-07-04T13:39:33;3.63;;;3.53;;
29378;SDS011;16362;47.202;15.258;2022-07-04T13:42:17;4.22;;;3.88;;
29378;SDS011;16362;47.202;15.258;2022-07-04T13:45:06;3.15;;;3.05;;
29378;SDS011;16362;47.202;15.258;2022-07-04T13:47:33;3.08;;;2.80;;
29378;SDS011;16362;47.202;15.258;2022-07-04T13:50:00;3.20;;;3.10;;
29378;SDS011;16362;47.202;15.258;2022-07-04T13:52:27;3.22;;;2.70;;
29378;SDS011;16362;47.202;15.258;2022-07-04T13:54:54;3.00;;;2.90;;
29378;SDS011;16362;47.202;15.258;2022-07-04T13:57:21;5.70;;;3.08;;
29378;SDS011;16362;47.202;15.258;2022-07-04T13:59:48;3.30;;;2.97;;
29378;SDS011;16362;47.202;15.258;2022-07-04T14:02:14;4.72;;;4.10;;
29378;SDS011;16362;47.202;15.258;2022-07-04T14:04:41;3.33;;;3.20;;
29378;SDS011;16362;47.202;15.258;2022-07-04T14:07:08;3.60;;;3.40;;
29378;SDS011;16362;47.202;15.258;2022-07-04T14:12:09;3.60;;;3.40;;
29378;SDS011;16362;47.202;15.258;2022-07-04T14:14:36;5.68;;;3.75;;
29378;SDS011;16362;47.202;15.258;2022-07-04T14:17:03;4.10;;;3.47;;
29378;SDS011;16362;47.202;15.258;2022-07-04T14:19:49;4.55;;;3.53;;
29378;SDS011;16362;47.202;15.258;2022-07-04T14:22:16;3.30;;;2.90;;
29378;SDS011;16362;47.202;15.258;2022-07-04T14:24:43;6.72;;;3.25;;
29378;SDS011;16362;47.202;15.258;2022-07-04T14:27:10;2.95;;;2.85;;
29378;SDS011;16362;47.202;15.258;2022-07-04T14:29:37;2.95;;;2.85;;
29378;SDS011;16362;47.202;15.258;2022-07-04T14:32:08;3.55;;;3.25;;
29378;SDS011;16362;47.202;15.258;2022-07-04T14:34:35;4.00;;;3.40;;
29378;SDS011;16362;47.202;15.258;2022-07-04T14:37:02;5.50;;;3.50;;
29378;SDS011;16362;47.202;15.258;2022-07-04T14:39:29;3.33;;;3.13;;
29378;SDS011;16362;47.202;15.258;2022-07-04T14:41:56;3.20;;;2.92;;
29378;SDS011;16362;47.202;15.258;2022-07-04T14:44:22;3.47;;;3.00;;
29378;SDS011;16362;47.202;15.258;2022-07-04T14:46:49;3.53;;;3.42;;
29378;SDS011;16362;47.202;15.258;2022-07-04T14:49:16;3.30;;;3.20;;
29378;SDS011;16362;47.202;15.258;2022-07-04T14:51:43;3.47;;;3.17;;
29378;SDS011;16362;47.202;15.258;2022-07-04T14:54:10;4.55;;;3.50;;
29378;SDS011;16362;47.202;15.258;2022-07-04T14:56:37;3.30;;;3.20;;
29378;SDS011;16362;47.202;15.258;2022-07-04T14:59:04;3.58;;;3.38;;
29378;SDS011;16362;47.202;15.258;2022-07-04T15:01:31;3.95;;;3.35;;
29378;SDS011;16362;47.202;15.258;2022-07-04T15:03:58;5.32;;;3.65;;
29378;SDS011;16362;47.202;15.258;2022-07-04T15:06:26;3.35;;;3.05;;
29378;SDS011;16362;47.202;15.258;2022-07-04T15:08:52;3.90;;;3.58;;